Time;durP1;ratioP1;P1;durP2;ratioP2;P2;SDS_P1;SDS_P2;PMS_P1;PMS_P2;Temp;Humidity;BMP_temperature;BMP_pressure;BME280_temperature;BME280_humidity;BME280_pressure;Samples;Min_cycle;Max_cycle;Signal;HPM_P1;HPM_P2
2022/11/20 00:01:56;;;;;;;6.03;4.07;;;8.80;99.90;;;;;;5028981;28;20034;-57
2022/11/20 00:05:00;;;;;;;4.10;3.40;;;8.80;99.90;;;;;;5028000;28;20037;-56
2022/11/20 00:08:04;;;;;;;8.57;3.85;;;8.80;99.90;;;;;;5029149;28;20037;-56
2022/11/20 00:11:10;;;;;;;8.13;3.67;;;8.70;99.90;;;;;;5028793;28;20496;-54
2022/11/20 00:14:14;;;;;;;8.50;3.50;;;8.70;99.90;;;;;;5032178;28;20378;-55
2022/11/20 00:17:18;;;;;;;5.95;4.35;;;8.80;99.90;;;;;;5033113;28;20038;-57
2022/11/20 00:20:23;;;;;;;7.05;4.90;;;8.80;99.90;;;;;;5032925;28;20037;-53
2022/11/20 00:23:27;;;;;;;9.60;4.60;;;8.80;99.90;;;;;;5032003;28;20061;-56
2022/11/20 00:26:31;;;;;;;24.58;14.85;;;8.80;99.90;;;;;;5032715;28;20513;-55
2022/11/20 00:29:34;;;;;;;11.38;7.25;;;8.90;99.90;;;;;;5032457;28;20053;-56
2022/11/20 00:32:38;;;;;;;8.98;5.40;;;8.80;99.90;;;;;;5032250;28;20074;-55
2022/11/20 00:35:43;;;;;;;9.63;5.75;;;8.90;99.90;;;;;;5031294;28;20041;-56
2022/11/20 00:38:52;;;;;;;12.05;6.55;;;8.90;99.90;;;;;;5032494;28;20041;-53
2022/11/20 00:41:56;;;;;;;15.52;8.27;;;8.90;99.90;;;;;;5032355;28;20044;-56
2022/11/20 00:45:00;;;;;;;10.85;6.15;;;8.80;99.90;;;;;;5030323;28;20037;-55
2022/11/20 00:48:04;;;;;;;6.13;4.38;;;8.80;99.90;;;;;;5031547;28;20408;-53
2022/11/20 00:51:08;;;;;;;6.47;4.30;;;8.80;99.90;;;;;;5032146;28;20045;-54
2022/11/20 00:54:12;;;;;;;5.25;4.30;;;8.80;99.90;;;;;;5031221;28;20038;-53
2022/11/20 00:57:16;;;;;;;5.93;3.75;;;8.80;99.90;;;;;;5032027;28;20037;-53
2022/11/20 01:00:20;;;;;;;5.55;4.03;;;8.80;99.90;;;;;;5031967;28;20037;-53
2022/11/20 01:03:24;;;;;;;5.82;3.40;;;8.80;99.90;;;;;;5031099;28;20037;-54
2022/11/20 01:06:34;;;;;;;5.45;4.28;;;8.70;99.90;;;;;;5031539;28;20041;-54
2022/11/20 01:09:38;;;;;;;7.00;3.95;;;8.80;99.90;;;;;;5031726;28;20038;-52
2022/11/20 01:12:42;;;;;;;6.90;4.15;;;8.80;99.90;;;;;;5031393;28;20472;-52
2022/11/20 01:15:46;;;;;;;10.60;5.30;;;8.70;99.90;;;;;;5031142;28;20037;-53
2022/11/20 01:18:52;;;;;;;7.20;3.45;;;8.70;99.90;;;;;;5031859;28;20509;-55
2022/11/20 01:21:55;;;;;;;9.00;4.32;;;8.70;99.90;;;;;;5031531;28;20029;-56
2022/11/20 01:24:59;;;;;;;8.30;4.82;;;8.70;99.90;;;;;;5030615;28;20042;-58
2022/11/20 01:28:04;;;;;;;10.15;5.25;;;8.60;99.90;;;;;;5031822;28;20033;-54
2022/11/20 01:31:15;;;;;;;6.80;4.47;;;8.60;99.90;;;;;;5031411;28;20034;-56
2022/11/20 01:34:22;;;;;;;5.55;4.13;;;8.70;99.90;;;;;;5030531;28;20041;-52
2022/11/20 01:37:25;;;;;;;7.10;4.43;;;8.70;99.90;;;;;;5031141;28;20292;-58
2022/11/20 01:40:29;;;;;;;7.10;4.63;;;8.70;99.90;;;;;;5031397;28;20037;-56
2022/11/20 01:43:34;;;;;;;8.27;4.68;;;8.60;99.90;;;;;;5030518;28;20042;-53
2022/11/20 01:46:42;;;;;;;5.03;3.45;;;8.60;99.90;;;;;;5030928;28;20033;-56
2022/11/20 01:49:52;;;;;;;5.13;3.90;;;8.50;99.90;;;;;;5030889;28;20037;-56
2022/11/20 01:53:03;;;;;;;6.60;4.13;;;8.50;99.90;;;;;;5031148;28;20045;-54
2022/11/20 01:56:11;;;;;;;6.22;3.70;;;8.50;99.90;;;;;;5031025;28;20045;-56
2022/11/20 01:59:19;;;;;;;6.72;3.65;;;8.40;99.90;;;;;;5031340;28;20041;-53
2022/11/20 02:02:23;;;;;;;5.47;3.92;;;8.40;99.90;;;;;;5031387;28;20045;-53
2022/11/20 02:05:29;;;;;;;7.82;4.38;;;8.30;99.90;;;;;;5030310;28;20053;-55
2022/11/20 02:08:36;;;;;;;9.57;5.90;;;8.30;99.90;;;;;;5031156;28;20037;-54
2022/11/20 02:11:40;;;;;;;11.57;7.65;;;8.30;99.90;;;;;;5031066;28;20053;-55
2022/11/20 02:14:44;;;;;;;14.93;6.28;;;8.30;99.90;;;;;;5030456;28;20051;-52
2022/11/20 02:17:48;;;;;;;7.70;5.78;;;8.20;99.90;;;;;;5031035;28;20048;-54
2022/11/20 02:21:40;;;;;;;8.18;6.13;;;8.10;99.90;;;;;;5030537;28;20045;-57
2022/11/20 02:24:46;;;;;;;6.78;5.03;;;8.00;99.90;;;;;;5025672;28;20045;-53
2022/11/20 02:27:50;;;;;;;8.50;5.50;;;8.00;99.90;;;;;;5030379;28;20037;-55
2022/11/20 02:30:55;;;;;;;8.43;5.90;;;8.00;99.90;;;;;;5029326;28;20373;-55
2022/11/20 02:33:59;;;;;;;9.20;5.55;;;7.90;99.90;;;;;;5029458;28;20033;-56
2022/11/20 02:37:03;;;;;;;9.80;6.43;;;7.90;99.90;;;;;;5029586;28;20496;-54
2022/11/20 02:40:08;;;;;;;6.80;4.88;;;7.80;99.90;;;;;;5030274;28;20034;-54
2022/11/20 02:43:12;;;;;;;10.45;5.45;;;7.80;99.90;;;;;;5029581;28;20492;-53
2022/11/20 02:46:16;;;;;;;7.15;4.22;;;7.80;99.90;;;;;;5029593;28;20515;-53
2022/11/20 02:49:21;;;;;;;5.18;3.28;;;7.70;99.90;;;;;;5029787;28;20041;-57
2022/11/20 02:52:25;;;;;;;4.40;2.75;;;7.70;99.90;;;;;;5029944;28;20037;-56
2022/11/20 02:55:29;;;;;;;3.80;2.97;;;7.60;99.90;;;;;;5029407;28;20484;-55
2022/11/20 02:58:34;;;;;;;4.32;3.20;;;7.60;99.90;;;;;;5030001;28;20030;-55
2022/11/20 03:01:38;;;;;;;5.45;3.03;;;7.60;99.90;;;;;;5029232;28;20038;-55
2022/11/20 03:04:44;;;;;;;6.20;3.30;;;7.60;99.90;;;;;;5028132;28;20037;-55
2022/11/20 03:07:51;;;;;;;7.88;3.53;;;7.60;99.90;;;;;;5029117;28;20248;-55
2022/11/20 03:10:55;;;;;;;9.20;3.83;;;7.60;99.90;;;;;;5029718;28;20041;-56
2022/11/20 03:14:03;;;;;;;5.60;3.88;;;7.60;99.90;;;;;;5028836;28;20041;-56
2022/11/20 03:17:07;;;;;;;7.30;3.75;;;7.60;99.90;;;;;;5029344;28;20046;-57
2022/11/20 03:20:11;;;;;;;4.72;3.38;;;7.60;99.90;;;;;;5029606;28;20042;-58
2022/11/20 03:23:15;;;;;;;4.22;3.10;;;7.60;99.90;;;;;;5029164;28;20033;-56
2022/11/20 03:26:22;;;;;;;4.47;2.90;;;7.60;99.90;;;;;;5029064;28;20393;-56
2022/11/20 03:29:26;;;;;;;4.80;3.00;;;7.60;99.90;;;;;;5029530;28;20037;-57
2022/11/20 03:32:31;;;;;;;4.28;2.47;;;7.60;99.90;;;;;;5029380;28;20037;-56
2022/11/20 03:35:35;;;;;;;3.88;2.40;;;7.60;99.90;;;;;;5028739;28;20041;-56
2022/11/20 03:38:40;;;;;;;9.77;2.67;;;7.60;99.90;;;;;;5029174;28;20033;-53
2022/11/20 03:41:44;;;;;;;3.90;2.53;;;7.60;99.90;;;;;;5029155;28;20038;-54
2022/11/20 03:44:49;;;;;;;5.30;2.33;;;7.60;99.90;;;;;;5028517;28;20041;-55
2022/11/20 03:47:54;;;;;;;3.65;2.35;;;7.50;99.90;;;;;;5031901;28;20037;-56
2022/11/20 03:51:13;;;;;;;2.53;1.77;;;7.50;99.90;;;;;;5033695;28;20029;-58
2022/11/20 03:54:18;;;;;;;3.10;2.22;;;7.50;99.90;;;;;;5032668;28;20045;-53
2022/11/20 03:57:24;;;;;;;12.23;2.63;;;7.40;99.90;;;;;;5033152;28;20401;-55
2022/11/20 04:00:28;;;;;;;12.32;2.88;;;7.40;99.90;;;;;;5033226;28;20049;-57
2022/11/20 04:03:32;;;;;;;4.05;2.53;;;7.40;99.90;;;;;;5032724;28;20049;-54
2022/11/20 04:06:38;;;;;;;4.00;2.40;;;7.50;99.90;;;;;;5033163;28;20049;-56
2022/11/20 04:09:42;;;;;;;3.72;2.72;;;7.50;99.90;;;;;;5033182;28;20034;-57
2022/11/20 04:12:46;;;;;;;10.23;2.60;;;7.60;99.90;;;;;;5033067;28;20045;-54
2022/11/20 04:15:50;;;;;;;3.92;2.75;;;7.60;99.90;;;;;;5033506;28;20048;-54
2022/11/20 04:18:56;;;;;;;5.30;2.78;;;7.60;99.90;;;;;;5033253;28;20037;-53
2022/11/20 04:21:59;;;;;;;4.93;2.60;;;7.60;99.90;;;;;;5033236;28;20041;-58
2022/11/20 04:25:04;;;;;;;3.25;2.42;;;7.60;99.90;;;;;;5032928;28;20049;-54
2022/11/20 04:28:09;;;;;;;4.45;2.70;;;7.60;99.90;;;;;;5032871;28;20041;-52
2022/11/20 04:31:15;;;;;;;3.72;2.40;;;7.50;99.90;;;;;;5031945;28;20484;-57
2022/11/20 04:34:21;;;;;;;3.55;2.45;;;7.50;99.90;;;;;;5031550;28;20045;-55
2022/11/20 04:37:25;;;;;;;4.65;2.58;;;7.40;99.90;;;;;;5032132;28;20369;-52
2022/11/20 04:40:29;;;;;;;5.13;2.78;;;7.40;99.90;;;;;;5032481;28;20046;-56
2022/11/20 04:43:33;;;;;;;3.58;2.50;;;7.30;99.90;;;;;;5031373;28;20349;-54
2022/11/20 04:46:40;;;;;;;5.07;2.65;;;7.30;99.90;;;;;;5031883;28;20041;-54
2022/11/20 04:49:43;;;;;;;4.32;2.78;;;7.20;99.90;;;;;;5031977;28;20050;-57
2022/11/20 04:52:47;;;;;;;6.10;3.22;;;7.20;99.90;;;;;;5031870;28;20041;-53
2022/11/20 04:55:51;;;;;;;6.15;3.53;;;7.20;99.90;;;;;;5032035;28;20488;-56
2022/11/20 04:58:55;;;;;;;7.53;3.60;;;7.10;99.90;;;;;;5031082;28;20033;-56
2022/11/20 05:01:59;;;;;;;8.48;3.75;;;7.10;99.90;;;;;;5032097;28;20045;-53
2022/11/20 05:05:03;;;;;;;5.55;3.80;;;7.10;99.90;;;;;;5031139;28;20041;-56
2022/11/20 05:08:08;;;;;;;8.82;4.53;;;7.10;99.90;;;;;;5031665;28;20049;-54
2022/11/20 05:11:18;;;;;;;9.57;4.50;;;7.10;99.90;;;;;;5031908;28;20045;-57
2022/11/20 05:14:22;;;;;;;12.82;6.13;;;7.10;99.90;;;;;;5030947;28;20037;-53
2022/11/20 05:17:27;;;;;;;7.22;4.45;;;7.10;99.90;;;;;;5031602;28;20060;-54
2022/11/20 05:20:30;;;;;;;7.15;4.80;;;7.00;99.90;;;;;;5031835;28;20037;-53
2022/11/20 05:23:35;;;;;;;9.38;4.80;;;7.00;99.90;;;;;;5031201;28;20041;-55
2022/11/20 05:26:39;;;;;;;8.40;4.88;;;7.00;99.90;;;;;;5031774;28;20037;-54
2022/11/20 05:29:43;;;;;;;10.02;5.40;;;7.00;99.90;;;;;;5031460;28;20357;-56
2022/11/20 05:32:47;;;;;;;11.10;5.10;;;6.90;99.90;;;;;;5031633;28;20400;-53
2022/11/20 05:35:51;;;;;;;6.88;5.15;;;6.90;99.90;;;;;;5031565;28;20042;-53
2022/11/20 05:38:56;;;;;;;7.75;4.97;;;6.90;99.90;;;;;;5030969;28;20468;-56
2022/11/20 05:45:23;;;;;;;11.57;6.10;;;6.90;99.90;;;;;;5030577;28;20044;-57
2022/11/20 05:48:28;;;;;;;11.30;6.60;;;6.90;99.90;;;;;;5030584;28;20049;-56
2022/11/20 05:51:31;;;;;;;11.07;5.72;;;6.80;99.90;;;;;;5031065;28;20042;-58
2022/11/20 05:54:35;;;;;;;8.35;5.25;;;6.80;99.90;;;;;;5030055;28;20045;-53
2022/11/20 05:57:39;;;;;;;12.38;6.10;;;6.70;99.90;;;;;;5031038;28;20037;-53
2022/11/20 06:00:43;;;;;;;8.40;5.88;;;6.70;99.90;;;;;;5030850;28;20038;-53
2022/11/20 06:03:50;;;;;;;7.40;5.68;;;6.70;99.90;;;;;;5030289;28;20389;-57
2022/11/20 06:06:55;;;;;;;8.20;5.43;;;6.70;99.90;;;;;;5030963;28;20045;-53
2022/11/20 06:09:58;;;;;;;7.65;5.93;;;6.60;99.90;;;;;;5029140;28;20037;-54
2022/11/20 06:13:02;;;;;;;9.48;6.05;;;6.50;99.90;;;;;;5030848;28;20385;-54
2022/11/20 06:16:07;;;;;;;10.52;5.93;;;6.50;99.90;;;;;;5030398;28;20037;-52
2022/11/20 06:19:11;;;;;;;11.00;6.57;;;6.50;99.90;;;;;;5030457;28;20045;-57
2022/11/20 06:22:14;;;;;;;10.02;6.57;;;6.50;99.90;;;;;;5030581;28;20419;-57
2022/11/20 06:25:18;;;;;;;10.02;5.82;;;6.50;99.90;;;;;;5029783;28;20037;-56
2022/11/20 06:28:22;;;;;;;9.65;5.57;;;6.40;99.90;;;;;;5030421;28;20515;-57
2022/11/20 06:31:26;;;;;;;10.95;6.70;;;6.40;99.90;;;;;;5029484;28;20046;-52
2022/11/20 06:34:30;;;;;;;12.77;6.65;;;6.50;99.90;;;;;;5029365;28;20046;-56
2022/11/20 06:37:34;;;;;;;12.45;7.45;;;6.50;99.90;;;;;;5030521;28;20033;-57
2022/11/20 06:40:42;;;;;;;13.32;8.02;;;6.50;99.90;;;;;;5029851;28;20037;-57
2022/11/20 06:43:47;;;;;;;11.63;7.55;;;6.50;99.90;;;;;;5029503;28;20053;-55
2022/11/20 06:46:51;;;;;;;11.07;7.78;;;6.60;99.90;;;;;;5029595;28;20042;-57
2022/11/20 06:49:55;;;;;;;11.85;7.25;;;6.90;99.90;;;;;;5028646;28;20048;-58
2022/11/20 06:53:03;;;;;;;12.57;8.00;;;7.40;99.90;;;;;;5029205;28;20064;-56
2022/11/20 06:56:07;;;;;;;12.82;6.80;;;8.40;99.90;;;;;;5029774;28;20048;-57
2022/11/20 06:59:12;;;;;;;8.98;3.78;;;11.10;99.90;;;;;;5029752;28;20507;-56
2022/11/20 07:02:15;;;;;;;4.25;2.92;;;13.90;99.90;;;;;;5029870;28;20034;-54
2022/11/20 07:05:20;;;;;;;3.40;1.95;;;16.40;99.90;;;;;;5029065;28;20033;-55
2022/11/20 07:08:24;;;;;;;3.22;1.80;;;18.30;99.90;;;;;;5029819;28;20044;-57
2022/11/20 07:11:28;;;;;;;2.00;1.30;;;20.10;99.90;;;;;;5029455;28;20052;-55
2022/11/20 07:14:34;;;;;;;4.32;2.13;;;21.30;99.90;;;;;;5028722;28;20108;-59
2022/11/20 07:17:37;;;;;;;2.08;1.20;;;21.70;99.90;;;;;;5029471;28;20034;-57
2022/11/20 07:20:41;;;;;;;4.47;1.40;;;22.40;99.90;;;;;;5029074;28;20037;-55
2022/11/20 07:23:46;;;;;;;2.17;1.10;;;23.40;99.90;;;;;;5028779;28;20436;-58
2022/11/20 07:26:50;;;;;;;1.05;0.88;;;24.10;98.40;;;;;;5029606;28;20054;-57
2022/11/20 07:29:56;;;;;;;4.00;1.85;;;24.20;97.50;;;;;;5029225;28;20400;-55
2022/11/20 07:33:02;;;;;;;2.13;1.50;;;23.20;96.90;;;;;;5029086;28;20056;-56
2022/11/20 07:36:08;;;;;;;2.85;1.20;;;23.00;97.80;;;;;;5029489;28;20046;-57
2022/11/20 07:39:12;;;;;;;2.53;1.17;;;23.30;97.80;;;;;;5029472;28;20044;-57
2022/11/20 07:42:15;;;;;;;2.38;1.23;;;24.50;97.10;;;;;;5029345;28;20048;-55
2022/11/20 07:45:21;;;;;;;1.20;1.00;;;25.50;95.60;;;;;;5028701;28;20041;-55
2022/11/20 07:48:25;;;;;;;2.13;0.90;;;26.70;94.50;;;;;;5029490;28;20389;-56
2022/11/20 07:51:29;;;;;;;3.13;1.95;;;27.90;92.90;;;;;;5028735;28;20398;-57
2022/11/20 07:54:34;;;;;;;3.33;2.60;;;28.50;92.00;;;;;;5028808;28;20045;-56
2022/11/20 07:57:38;;;;;;;3.53;1.67;;;28.40;92.20;;;;;;5028951;28;20060;-54
2022/11/20 08:00:43;;;;;;;2.33;0.98;;;28.80;91.50;;;;;;5028893;28;20044;-58
2022/11/20 08:03:47;;;;;;;2.53;1.15;;;29.40;90.60;;;;;;5028611;28;20052;-53
2022/11/20 08:06:52;;;;;;;4.35;1.30;;;30.00;90.00;;;;;;5028911;28;20410;-58
2022/11/20 08:09:56;;;;;;;2.65;1.40;;;30.70;89.60;;;;;;5028791;28;20075;-56
2022/11/20 08:16:24;;;;;;;3.80;1.20;;;31.80;86.30;;;;;;5029036;28;20060;-54
2022/11/20 08:19:28;;;;;;;4.47;1.02;;;32.30;84.00;;;;;;5029082;28;20044;-56
2022/11/20 08:22:32;;;;;;;2.15;0.77;;;32.70;81.40;;;;;;5029365;28;20539;-57
2022/11/20 08:25:37;;;;;;;3.85;1.20;;;32.60;82.80;;;;;;5028966;28;20042;-57
2022/11/20 08:28:41;;;;;;;2.65;0.95;;;33.20;78.60;;;;;;5029367;28;20048;-56
2022/11/20 08:31:45;;;;;;;3.35;0.98;;;33.00;79.80;;;;;;5028894;28;20044;-58
2022/11/20 08:34:49;;;;;;;2.20;0.80;;;32.30;77.20;;;;;;5031293;28;20040;-58
2022/11/20 08:37:53;;;;;;;1.50;0.70;;;32.60;80.20;;;;;;5032814;28;20031;-57
2022/11/20 08:44:21;;;;;;;3.35;0.77;;;32.50;78.90;;;;;;5032015;28;20053;-59
2022/11/20 08:47:25;;;;;;;3.42;0.80;;;32.50;78.30;;;;;;5032275;28;20052;-58
2022/11/20 08:50:31;;;;;;;3.60;0.90;;;33.70;78.90;;;;;;5031566;28;20400;-59
2022/11/20 08:53:35;;;;;;;1.95;0.60;;;34.40;75.90;;;;;;5031571;28;20052;-59
2022/11/20 08:56:39;;;;;;;1.70;0.70;;;35.30;75.60;;;;;;5032258;28;20408;-54
2022/11/20 08:59:43;;;;;;;1.55;0.70;;;35.40;74.60;;;;;;5032315;28;20029;-58
2022/11/20 09:02:48;;;;;;;2.42;0.85;;;35.30;72.10;;;;;;5031985;28;20030;-57
2022/11/20 09:06:01;;;;;;;2.63;0.80;;;35.70;73.10;;;;;;5031978;28;20108;-58
2022/11/20 09:09:05;;;;;;;1.67;0.75;;;36.40;70.80;;;;;;5032205;28;20041;-57
2022/11/20 09:12:09;;;;;;;2.65;0.70;;;36.80;72.70;;;;;;5031731;28;20056;-57
2022/11/20 09:15:13;;;;;;;1.83;0.60;;;37.80;68.80;;;;;;5030964;28;20037;-58
2022/11/20 09:18:17;;;;;;;1.20;0.50;;;37.80;68.80;;;;;;5031653;28;20401;-58
2022/11/20 09:21:22;;;;;;;1.05;0.60;;;37.20;66.90;;;;;;5031421;28;20045;-59
2022/11/20 09:24:27;;;;;;;4.93;0.98;;;36.80;67.90;;;;;;5031337;28;20040;-57
2022/11/20 09:27:31;;;;;;;3.22;0.80;;;28.70;68.40;;;;;;5031803;28;20037;-55
2022/11/20 09:30:36;;;;;;;5.78;0.98;;;25.80;79.80;;;;;;5031399;28;20500;-56
2022/11/20 09:33:39;;;;;;;2.70;1.17;;;24.80;80.80;;;;;;5030477;28;20040;-57
2022/11/20 09:36:44;;;;;;;2.28;1.13;;;26.20;79.80;;;;;;5031045;28;20052;-58
2022/11/20 09:39:48;;;;;;;1.38;0.85;;;29.30;76.90;;;;;;5031101;28;20045;-58
2022/11/20 09:43:16;;;;;;;2.08;0.70;;;31.90;75.00;;;;;;5031154;28;20044;-58
2022/11/20 09:46:40;;;;;;;4.47;0.60;;;32.40;73.90;;;;;;5031061;28;20029;-56
2022/11/20 09:49:47;;;;;;;1.00;0.52;;;33.80;71.60;;;;;;5030976;28;20029;-57
2022/11/20 09:52:59;;;;;;;3.47;0.73;;;32.00;71.00;;;;;;5030775;28;20034;-58
2022/11/20 09:56:04;;;;;;;5.00;0.95;;;29.90;72.20;;;;;;5031191;28;20046;-56
2022/11/20 09:59:21;;;;;;;2.60;0.43;;;28.70;73.40;;;;;;5030925;28;20045;-56
2022/11/20 10:02:30;;;;;;;1.77;0.60;;;30.40;73.80;;;;;;5030614;28;20036;-59
2022/11/20 10:05:52;;;;;;;1.30;0.45;;;30.50;74.30;;;;;;5030245;28;20064;-58
2022/11/20 10:09:13;;;;;;;2.65;0.57;;;32.60;71.80;;;;;;5030724;28;20041;-54
2022/11/20 10:12:49;;;;;;;2.85;0.70;;;34.20;70.20;;;;;;5030951;28;20048;-56
2022/11/20 10:16:24;;;;;;;1.17;0.50;;;35.90;69.30;;;;;;5030767;28;20045;-56
2022/11/20 10:19:59;;;;;;;2.70;0.70;;;33.20;66.30;;;;;;5030750;28;20052;-59
2022/11/20 10:23:21;;;;;;;2.00;0.50;;;30.10;70.30;;;;;;5030294;28;20042;-57
2022/11/20 10:26:39;;;;;;;1.58;0.60;;;30.90;71.60;;;;;;5030687;28;20417;-57
2022/11/20 10:29:47;;;;;;;1.52;0.70;;;32.20;70.30;;;;;;5030801;28;20041;-56
2022/11/20 10:32:58;;;;;;;1.65;0.50;;;32.70;68.20;;;;;;5029862;28;20044;-55
2022/11/20 10:36:38;;;;;;;2.05;0.50;;;34.00;68.60;;;;;;5030205;28;20052;-56
2022/11/20 10:40:04;;;;;;;2.70;0.70;;;35.30;66.80;;;;;;5031049;28;20037;-58
2022/11/20 10:43:31;;;;;;;1.95;0.40;;;35.80;66.80;;;;;;5029685;28;20084;-53
2022/11/20 10:46:54;;;;;;;1.92;0.40;;;36.90;67.00;;;;;;5030148;28;20053;-54
2022/11/20 10:50:04;;;;;;;1.08;0.40;;;35.80;62.00;;;;;;5029509;28;20522;-56
2022/11/20 10:53:25;;;;;;;2.00;0.65;;;35.60;61.70;;;;;;5029685;28;20036;-56
2022/11/20 10:56:41;;;;;;;1.90;0.50;;;36.90;62.00;;;;;;5029438;28;20053;-57
2022/11/20 11:00:07;;;;;;;1.42;0.85;;;38.10;61.40;;;;;;5029882;28;20049;-55
2022/11/20 11:03:31;;;;;;;4.85;0.88;;;36.50;61.10;;;;;;5029089;28;20034;-57
2022/11/20 11:06:42;;;;;;;1.80;0.93;;;35.00;63.60;;;;;;5029975;28;20054;-57
2022/11/20 11:09:53;;;;;;;1.40;0.70;;;35.50;63.10;;;;;;5029754;28;20519;-54
2022/11/20 11:12:59;;;;;;;1.30;0.80;;;35.50;60.30;;;;;;5029700;28;20049;-56
2022/11/20 11:16:03;;;;;;;3.00;1.13;;;35.80;62.60;;;;;;5029610;28;20037;-57
2022/11/20 11:19:13;;;;;;;1.05;0.57;;;37.10;61.70;;;;;;5029628;28;20048;-56
2022/11/20 11:22:18;;;;;;;0.88;0.40;;;38.30;60.20;;;;;;5029538;28;20048;-58
2022/11/20 11:25:37;;;;;;;3.83;3.05;;;38.90;58.40;;;;;;5029310;28;20056;-56
2022/11/20 11:28:52;;;;;;;5.78;1.50;;;35.40;57.90;;;;;;5029998;28;20056;-53
2022/11/20 11:32:17;;;;;;;4.32;1.20;;;30.30;61.10;;;;;;5029501;28;20420;-55
2022/11/20 11:35:24;;;;;;;1.45;0.80;;;25.90;66.80;;;;;;5028945;28;20502;-58
2022/11/20 11:38:34;;;;;;;1.05;0.70;;;27.30;65.30;;;;;;5029371;28;20053;-57
2022/11/20 11:41:40;;;;;;;3.03;1.20;;;29.60;63.90;;;;;;5029286;28;20040;-56
2022/11/20 11:45:05;;;;;;;0.90;0.52;;;31.70;62.80;;;;;;5028684;28;20052;-59
2022/11/20 11:48:09;;;;;;;2.13;1.25;;;33.50;59.00;;;;;;5028941;28;20056;-57
2022/11/20 11:51:20;;;;;;;2.17;0.73;;;32.70;60.30;;;;;;5042990;22;20056;-52
2022/11/20 11:54:30;;;;;;;2.90;1.00;;;32.70;60.40;;;;;;5027929;28;20558;-52
2022/11/20 11:58:04;;;;;;;2.22;0.70;;;34.40;60.40;;;;;;5029175;28;20041;-54
2022/11/20 12:01:34;;;;;;;1.48;0.80;;;34.70;59.10;;;;;;5029024;28;20404;-51
2022/11/20 12:04:44;;;;;;;1.80;0.80;;;33.60;59.20;;;;;;5028185;28;20048;-55
2022/11/20 12:07:53;;;;;;;2.00;0.57;;;32.00;61.80;;;;;;5031132;28;20507;-53
2022/11/20 12:11:01;;;;;;;2.33;0.60;;;31.50;60.80;;;;;;5033231;28;20045;-53
2022/11/20 12:14:33;;;;;;;2.60;1.00;;;29.00;61.70;;;;;;5032283;28;20519;-54
2022/11/20 12:17:37;;;;;;;2.58;1.10;;;28.30;64.60;;;;;;5032902;28;20523;-46
2022/11/20 12:20:52;;;;;;;2.85;0.80;;;26.80;64.90;;;;;;5032704;28;20219;-47
2022/11/20 12:24:16;;;;;;;1.95;1.08;;;25.00;68.80;;;;;;5031700;28;20036;-54
2022/11/20 12:27:35;;;;;;;2.92;0.90;;;24.40;70.20;;;;;;5032844;28;20048;-51
2022/11/20 12:31:08;;;;;;;3.50;0.88;;;23.80;69.50;;;;;;5032498;28;20048;-49
2022/11/20 12:34:23;;;;;;;3.75;0.80;;;24.70;71.40;;;;;;5031477;28;20044;-54
2022/11/20 12:37:59;;;;;;;7.32;2.42;;;27.00;67.60;;;;;;5032640;28;20040;-53
2022/11/20 12:48:22;;;;;;;3.50;1.50;;;31.30;63.20;;;;;;5032354;28;20048;-55
2022/11/20 12:51:41;;;;;;;4.35;1.10;;;32.20;62.30;;;;;;5032326;28;20060;-49
2022/11/20 12:55:07;;;;;;;1.15;0.43;;;32.80;61.70;;;;;;5031247;28;20519;-54
2022/11/20 12:58:20;;;;;;;1.65;0.65;;;32.80;61.40;;;;;;5032294;28;20049;-53
2022/11/20 13:01:47;;;;;;;2.00;0.88;;;33.50;60.30;;;;;;5031648;28;20045;-52
2022/11/20 13:05:09;;;;;;;0.93;0.70;;;33.40;59.90;;;;;;5031053;28;20052;-55
2022/11/20 13:08:27;;;;;;;2.13;0.70;;;32.60;59.60;;;;;;5032197;28;20052;-54
2022/11/20 13:11:44;;;;;;;3.78;0.70;;;31.40;59.20;;;;;;5031722;28;20048;-50
2022/11/20 13:15:01;;;;;;;2.45;0.70;;;31.70;61.60;;;;;;5031239;28;20053;-54
2022/11/20 13:18:09;;;;;;;1.13;0.60;;;31.30;60.50;;;;;;5032016;28;20049;-54
2022/11/20 13:21:34;;;;;;;2.05;0.77;;;30.80;60.50;;;;;;5031806;28;20045;-54
2022/11/20 13:24:38;;;;;;;2.00;0.60;;;31.20;61.20;;;;;;5029533;28;20045;-54
2022/11/20 13:27:49;;;;;;;3.70;0.90;;;30.40;61.20;;;;;;5031742;28;20040;-53
2022/11/20 13:30:55;;;;;;;1.83;0.70;;;30.20;61.10;;;;;;5031501;28;20044;-52
2022/11/20 13:34:01;;;;;;;1.85;0.73;;;29.80;62.20;;;;;;5030548;28;20044;-54
2022/11/20 13:37:05;;;;;;;4.25;1.00;;;29.40;62.30;;;;;;5031576;28;20511;-54
2022/11/20 13:40:10;;;;;;;1.45;0.75;;;29.40;62.30;;;;;;5031385;28;20395;-54
2022/11/20 13:43:35;;;;;;;1.48;0.85;;;29.80;61.80;;;;;;5030904;28;20044;-54
2022/11/20 13:46:46;;;;;;;4.25;0.90;;;30.10;63.00;;;;;;5031389;28;20044;-55
2022/11/20 13:49:54;;;;;;;3.60;1.27;;;29.70;61.60;;;;;;5031185;28;20547;-51
2022/11/20 13:53:27;;;;;;;1.45;0.65;;;28.60;62.50;;;;;;5031520;28;20064;-51
2022/11/20 13:57:11;;;;;;;1.65;0.90;;;28.90;63.20;;;;;;5031272;28;20040;-56
2022/11/20 14:00:17;;;;;;;1.45;0.50;;;29.20;62.70;;;;;;5008760;28;20161;-52
2022/11/20 14:03:23;;;;;;;1.30;0.80;;;29.20;62.90;;;;;;5007992;28;20149;-53
2022/11/20 14:06:31;;;;;;;2.22;0.80;;;28.90;62.80;;;;;;5030533;28;20052;-53
2022/11/20 14:09:35;;;;;;;6.43;0.70;;;28.30;63.00;;;;;;5031057;28;20048;-50
2022/11/20 14:12:41;;;;;;;2.15;0.70;;;28.30;63.70;;;;;;5030842;28;20056;-51
2022/11/20 14:15:46;;;;;;;1.40;0.80;;;28.20;63.80;;;;;;5030580;28;20056;-48
2022/11/20 14:18:50;;;;;;;2.03;0.63;;;27.90;64.40;;;;;;5031165;28;20412;-48
2022/11/20 14:22:06;;;;;;;1.83;1.00;;;27.40;63.80;;;;;;5030720;28;20049;-51
2022/11/20 14:25:14;;;;;;;1.92;1.08;;;27.10;61.80;;;;;;5030070;28;20052;-49
2022/11/20 14:28:29;;;;;;;3.22;1.60;;;26.20;63.80;;;;;;5031098;28;20048;-47
2022/11/20 14:31:33;;;;;;;3.15;1.77;;;24.20;63.70;;;;;;5030039;28;20056;-51
2022/11/20 14:34:41;;;;;;;3.60;2.30;;;21.90;68.20;;;;;;5029652;28;20049;-50
2022/11/20 14:37:46;;;;;;;5.13;3.22;;;21.50;70.80;;;;;;5030371;28;20041;-48
2022/11/20 14:40:49;;;;;;;4.32;2.92;;;22.20;71.60;;;;;;5030092;28;20045;-48
2022/11/20 14:43:57;;;;;;;4.25;2.75;;;23.40;68.80;;;;;;5029481;28;20049;-49
2022/11/20 14:47:03;;;;;;;3.65;2.40;;;23.90;66.30;;;;;;5030040;28;20518;-48
2022/11/20 14:50:19;;;;;;;8.40;4.82;;;24.20;65.70;;;;;;5029846;28;20044;-54
2022/11/20 14:53:24;;;;;;;7.65;3.88;;;24.20;65.40;;;;;;5029185;28;20045;-54
2022/11/20 14:56:28;;;;;;;6.82;4.57;;;23.70;66.70;;;;;;5029608;28;20045;-51
2022/11/20 14:59:34;;;;;;;4.93;3.20;;;23.50;67.60;;;;;;5029970;28;20053;-50
2022/11/20 15:02:42;;;;;;;6.43;4.22;;;23.20;67.10;;;;;;5029890;28;20056;-52
2022/11/20 15:05:48;;;;;;;3.83;2.45;;;22.20;67.40;;;;;;5029712;28;20048;-52
2022/11/20 15:08:53;;;;;;;1.77;1.30;;;21.50;67.70;;;;;;5030004;28;20056;-51
2022/11/20 15:12:03;;;;;;;3.70;2.10;;;21.20;68.10;;;;;;5029664;28;20053;-49
2022/11/20 15:15:14;;;;;;;6.93;2.85;;;21.10;69.10;;;;;;5027698;28;20040;-49
2022/11/20 15:18:26;;;;;;;4.13;2.63;;;20.90;70.00;;;;;;5029807;28;20507;-51
2022/11/20 15:21:30;;;;;;;;;;;20.80;70.80;;;;;;5029829;28;20044;-52
2022/11/20 15:24:34;;;;;;;3.13;1.60;;;20.50;71.90;;;;;;5029091;28;19916;-47
2022/11/20 15:27:38;;;;;;;2.35;1.13;;;20.10;72.00;;;;;;5029454;28;20052;-54
2022/11/20 15:30:42;;;;;;;3.30;1.45;;;19.60;73.60;;;;;;5029300;28;20056;-53
2022/11/20 15:33:46;;;;;;;2.55;1.33;;;18.90;75.10;;;;;;5028680;28;20053;-54
2022/11/20 15:36:51;;;;;;;3.08;1.90;;;17.80;77.30;;;;;;5029188;28;20052;-54
2022/11/20 15:39:55;;;;;;;6.50;2.50;;;16.70;80.90;;;;;;5029408;28;20049;-52
2022/11/20 15:43:03;;;;;;;3.38;1.80;;;15.80;84.10;;;;;;5028995;28;20040;-51
2022/11/20 15:46:14;;;;;;;6.43;2.50;;;15.00;87.30;;;;;;5029114;28;20408;-52
2022/11/20 15:49:21;;;;;;;3.03;2.25;;;14.40;90.20;;;;;;5029398;28;20060;-50
2022/11/20 15:52:26;;;;;;;6.38;3.00;;;13.90;91.60;;;;;;5029147;28;20053;-46
2022/11/20 15:55:31;;;;;;;6.97;2.58;;;13.50;92.10;;;;;;5028420;28;20037;-51
2022/11/20 15:58:35;;;;;;;3.17;2.10;;;13.00;93.60;;;;;;5029342;28;20049;-51
2022/11/20 16:01:39;;;;;;;7.80;3.80;;;12.70;94.60;;;;;;5029217;28;20045;-53
2022/11/20 16:04:43;;;;;;;8.75;5.30;;;12.50;95.40;;;;;;5028461;28;20515;-49
2022/11/20 16:07:48;;;;;;;10.77;6.35;;;12.10;97.00;;;;;;5028938;28;20597;-50
2022/11/20 16:10:52;;;;;;;19.15;10.50;;;11.80;98.10;;;;;;5028958;28;20052;-48
2022/11/20 16:17:42;;;;;;;15.93;8.95;;;11.50;99.90;;;;;;5028742;28;20056;-46
2022/11/20 16:20:45;;;;;;;14.40;7.57;;;11.30;99.90;;;;;;5029130;28;20401;-51
2022/11/20 16:23:49;;;;;;;11.32;5.82;;;11.10;99.90;;;;;;5028388;28;20400;-47
2022/11/20 16:26:54;;;;;;;13.52;7.55;;;10.90;99.90;;;;;;5029085;28;20507;-46
2022/11/20 16:29:58;;;;;;;14.77;7.30;;;11.00;99.90;;;;;;5029189;28;20523;-47
2022/11/20 16:33:03;;;;;;;16.30;8.68;;;11.00;99.90;;;;;;5029071;28;20060;-47
2022/11/20 16:36:11;;;;;;;13.18;6.85;;;10.90;99.90;;;;;;5029156;28;20057;-52
2022/11/20 16:39:17;;;;;;;20.35;11.02;;;10.80;99.90;;;;;;5029209;28;20056;-50
2022/11/20 16:42:21;;;;;;;11.38;7.03;;;10.60;99.90;;;;;;5029059;28;20056;-51
2022/11/20 16:45:25;;;;;;;8.23;5.38;;;10.60;99.90;;;;;;5028344;28;20148;-50